Time;durP1;ratioP1;P1;durP2;ratioP2;P2;SDS_P1;SDS_P2;PMS_P1;PMS_P2;Temp;Humidity;BMP_temperature;BMP_pressure;BME280_temperature;BME280_humidity;BME280_pressure;Samples;Min_cycle;Max_cycle;Signal;HPM_P1;HPM_P2
2023/05/25 00:00:37;;;;;;;;;8.00;8.00;;;;;18.23;44.02;101731.69;5014434;28;45180;-70
2023/05/25 00:03:02;;;;;;;;;10.67;8.00;;;;;18.30;44.47;101754.34;5012861;28;45474;-67
2023/05/25 00:05:28;;;;;;;;;10.33;7.33;;;;;18.31;44.69;101745.31;5010304;28;45342;-68
2023/05/25 00:07:54;;;;;;;;;8.00;7.33;;;;;18.28;44.44;101746.22;5005776;28;45289;-67
2023/05/25 00:10:20;;;;;;;;;6.33;6.00;;;;;18.27;44.37;101741.69;5003434;28;45443;-68
2023/05/25 00:12:45;;;;;;;;;10.00;7.00;;;;;18.24;44.60;101733.53;5004603;28;45777;-68
2023/05/25 00:15:11;;;;;;;;;11.67;8.00;;;;;18.17;44.57;101737.97;5002575;28;45328;-67
2023/05/25 00:17:36;;;;;;;;;10.00;8.00;;;;;18.19;44.89;101738.88;4996078;28;45531;-69
2023/05/25 00:20:06;;;;;;;;;14.00;10.67;;;;;17.81;45.07;101674.44;4994444;28;45815;-68
2023/05/25 00:22:35;;;;;;;;;11.00;9.75;;;;;18.02;45.15;101725.19;5008451;28;45218;-68
2023/05/25 00:25:01;;;;;;;;;10.67;7.67;;;;;18.08;45.23;101745.06;5010435;28;45643;-71
2023/05/25 00:27:26;;;;;;;;;8.67;7.00;;;;;18.03;45.27;101739.59;5004373;28;45381;-69
2023/05/25 00:29:52;;;;;;;;;13.00;11.00;;;;;17.93;45.86;101737.69;4990127;28;45275;-69
2023/05/25 00:32:17;;;;;;;;;10.67;9.67;;;;;17.86;46.29;101731.25;5009806;28;45428;-69
2023/05/25 00:34:43;;;;;;;;;13.75;10.75;;;;;17.80;46.39;101734.81;5012342;28;45805;-69
2023/05/25 00:37:08;;;;;;;;;11.25;9.00;;;;;17.84;46.13;101735.75;5010709;28;45251;-68
2023/05/25 00:39:33;;;;;;;;;9.00;8.67;;;;;17.76;46.30;101727.53;5014164;28;45421;-69
2023/05/25 00:42:01;;;;;;;;;12.00;9.67;;;;;17.76;46.67;101732.94;5014216;28;44899;-69
2023/05/25 00:44:26;;;;;;;;;11.67;10.67;;;;;17.72;46.44;101727.47;5011379;28;46157;-70
2023/05/25 00:46:52;;;;;;;;;9.33;7.67;;;;;17.49;46.46;101695.69;5013929;28;48684;-66
2023/05/25 00:49:18;;;;;;;;;14.75;10.75;;;;;17.70;47.13;101735.56;5013532;28;45095;-68
2023/05/25 00:51:45;;;;;;;;;7.50;7.50;;;;;17.65;47.02;101732.81;5005326;28;45432;-68
2023/05/25 00:54:13;;;;;;;;;13.67;8.33;;;;;17.52;47.43;101727.22;4994554;28;46575;-69
2023/05/25 00:56:41;;;;;;;;;10.25;9.25;;;;;17.57;47.43;101734.53;5008215;28;45588;-69
2023/05/25 00:59:10;;;;;;;;;10.67;8.33;;;;;17.44;47.71;101713.59;5011855;28;45396;-69
2023/05/25 01:01:39;;;;;;;;;13.25;10.75;;;;;17.54;47.76;101730.84;4998641;28;45443;-71
2023/05/25 01:04:14;;;;;;;;;9.67;7.33;;;;;17.55;47.41;101735.38;4977766;28;48116;-70
2023/05/25 01:06:45;;;;;;;;;10.75;8.50;;;;;17.51;47.80;101737.13;4995985;28;45539;-71
2023/05/25 01:09:15;;;;;;;;;18.75;10.50;;;;;17.47;48.29;101738.88;4996297;28;46067;-67
2023/05/25 01:11:43;;;;;;;;;13.67;9.67;;;;;17.43;48.75;101738.81;5001996;28;45618;-70
2023/05/25 01:14:09;;;;;;;;;10.33;7.67;;;;;17.42;48.62;101734.28;5013448;28;45652;-68
2023/05/25 01:16:36;;;;;;;;;13.33;8.33;;;;;17.33;48.63;101721.56;4999586;28;45389;-69
2023/05/25 01:19:02;;;;;;;;;10.00;8.50;;;;;17.25;49.09;101717.84;4995989;28;45526;-69
2023/05/25 01:21:44;;;;;;;;;9.50;8.75;;;;;17.33;48.73;101739.59;4995624;28;45374;-69
2023/05/25 01:24:21;;;;;;;;;10.67;9.33;;;;;17.29;48.98;101749.41;4998547;28;45736;-70
2023/05/25 01:26:56;;;;;;;;;11.67;9.33;;;;;17.28;48.79;101731.41;4992705;28;45399;-70
2023/05/25 01:29:25;;;;;;;;;8.00;7.00;;;;;17.01;49.04;101710.28;5001601;28;45695;-70
2023/05/25 01:31:52;;;;;;;;;11.00;9.25;;;;;16.75;49.23;101657.69;5011721;28;45312;-70
2023/05/25 01:34:20;;;;;;;;;9.25;8.25;;;;;17.16;49.53;101737.53;4980536;28;46239;-68
2023/05/25 01:36:45;;;;;;;;;10.33;9.33;;;;;17.11;49.58;101732.06;5010046;28;45332;-70
2023/05/25 01:39:11;;;;;;;;;12.00;10.00;;;;;17.05;49.85;101731.97;5012995;28;44909;-70
2023/05/25 01:41:37;;;;;;;;;15.00;11.67;;;;;17.05;49.61;101749.97;5009603;28;45652;-70
2023/05/25 01:44:03;;;;;;;;;10.25;9.25;;;;;16.85;49.78;101730.75;5009609;28;45404;-69
2023/05/25 01:46:39;;;;;;;;;16.33;11.67;;;;;16.89;49.75;101743.41;5010738;28;45213;-69
2023/05/25 01:49:11;;;;;;;;;12.33;10.00;;;;;16.78;50.46;101745.91;4992607;28;45442;-70
2023/05/25 01:51:48;;;;;;;;;9.33;9.33;;;;;16.70;50.20;101745.75;5009212;28;45313;-69
2023/05/25 01:54:18;;;;;;;;;13.75;11.25;;;;;16.72;50.66;101753.88;4994922;28;45488;-69
2023/05/25 01:56:46;;;;;;;;;11.25;10.00;;;;;16.64;50.54;101739.34;4995308;28;45425;-70
2023/05/25 01:59:13;;;;;;;;;12.33;11.67;;;;;16.64;50.17;101759.13;5002440;28;45580;-70
2023/05/25 02:01:42;;;;;;;;;5.25;3.50;;;;;16.48;50.50;101735.47;5006927;28;45100;-69
2023/05/25 02:04:07;;;;;;;;;13.00;12.00;;;;;16.57;50.43;101750.03;5004551;28;46533;-69
2023/05/25 02:06:35;;;;;;;;;11.25;11.00;;;;;16.55;50.22;101753.59;5003536;28;45461;-69
2023/05/25 02:09:01;;;;;;;;;11.50;10.25;;;;;16.51;50.78;101751.72;4983634;28;45384;-69
2023/05/25 02:11:26;;;;;;;;;11.00;9.00;;;;;16.50;50.38;101761.59;4995520;28;45460;-69
2023/05/25 02:13:52;;;;;;;;;12.00;10.25;;;;;16.45;50.48;101746.19;4978194;28;48773;-70
2023/05/25 02:16:17;;;;;;;;;15.25;11.00;;;;;16.46;50.43;101753.41;4995463;28;45412;-67
2023/05/25 02:18:43;;;;;;;;;14.50;12.00;;;;;16.42;50.63;101756.94;4994012;28;45501;-70
2023/05/25 02:21:09;;;;;;;;;9.25;9.00;;;;;16.39;50.43;101750.59;5006143;28;45472;-69
2023/05/25 02:23:34;;;;;;;;;10.25;9.75;;;;;16.35;50.68;101761.28;5007967;28;45379;-70
2023/05/25 02:26:00;;;;;;;;;15.25;12.75;;;;;16.28;51.18;101753.97;4994745;28;45704;-69
2023/05/25 02:28:25;;;;;;;;;13.25;11.00;;;;;16.26;51.29;101764.72;4994659;28;45298;-68
2023/05/25 02:30:50;;;;;;;;;10.75;10.50;;;;;15.35;50.97;101613.81;5006414;28;45424;-70
2023/05/25 02:33:17;;;;;;;;;9.25;8.25;;;;;16.20;50.97;101761.91;5010900;28;45721;-69
2023/05/25 02:35:43;;;;;;;;;11.00;10.25;;;;;16.20;51.00;101770.00;4999230;28;45822;-69
2023/05/25 02:38:08;;;;;;;;;13.50;9.50;;;;;16.22;51.29;101770.97;5009985;28;45128;-70
2023/05/25 02:40:33;;;;;;;;;11.00;10.00;;;;;15.98;51.01;101731.84;5008929;28;45188;-70
2023/05/25 02:42:59;;;;;;;;;14.00;12.00;;;;;16.24;50.91;101781.78;4997995;28;46038;-69
2023/05/25 02:45:24;;;;;;;;;13.75;8.75;;;;;16.14;51.40;101761.81;4993639;28;58833;-69
2023/05/25 02:47:50;;;;;;;;;14.00;10.50;;;;;16.22;51.33;101779.06;4993673;28;45810;-70
2023/05/25 02:50:15;;;;;;;;;11.75;10.75;;;;;16.18;50.97;101777.16;4994576;28;45364;-71
2023/05/25 02:52:41;;;;;;;;;12.50;9.75;;;;;16.16;51.34;101773.53;4997398;28;46164;-70
2023/05/25 02:55:12;;;;;;;;;12.00;9.75;;;;;16.22;51.34;101787.13;5005751;28;45364;-70
2023/05/25 02:57:37;;;;;;;;;14.75;11.75;;;;;16.20;50.95;101783.47;4995750;28;45259;-70
2023/05/25 03:00:05;;;;;;;;;11.25;10.25;;;;;16.21;50.83;101779.91;4994604;28;45591;-70
2023/05/25 03:02:31;;;;;;;;;10.25;10.25;;;;;16.15;51.17;101785.19;4991895;28;46396;-68
2023/05/25 03:04:57;;;;;;;;;11.75;10.50;;;;;16.23;50.87;101791.63;4992888;28;45849;-70
2023/05/25 03:07:25;;;;;;;;;8.25;8.25;;;;;16.23;50.85;101794.34;4995582;28;45419;-69
2023/05/25 03:09:50;;;;;;;;;7.00;6.75;;;;;16.22;50.85;101797.94;4985833;28;45618;-69
2023/05/25 03:12:16;;;;;;;;;14.25;10.75;;;;;16.19;50.50;101787.06;5005587;28;46115;-68
2023/05/25 03:14:41;;;;;;;;;10.75;9.50;;;;;16.09;50.39;101777.88;4985033;28;45309;-68
2023/05/25 03:17:06;;;;;;;;;11.50;11.50;;;;;16.15;50.62;101794.19;4997484;28;45598;-69
2023/05/25 03:19:32;;;;;;;;;10.75;10.75;;;;;16.05;50.45;101778.69;4993143;28;45558;-69
2023/05/25 03:21:57;;;;;;;;;15.75;13.50;;;;;15.91;50.80;101775.72;4995760;28;45674;-68
2023/05/25 03:24:22;;;;;;;;;13.00;10.00;;;;;15.84;51.35;101776.47;4998086;28;45672;-68
2023/05/25 03:26:48;;;;;;;;;10.25;9.75;;;;;15.90;51.24;101790.06;5001602;28;49705;-68
2023/05/25 03:29:13;;;;;;;;;9.00;9.00;;;;;15.94;51.17;101804.53;4978676;28;45421;-69
2023/05/25 03:31:38;;;;;;;;;8.00;8.00;;;;;15.91;51.30;101799.97;4993982;28;53548;-69
2023/05/25 03:34:05;;;;;;;;;9.50;7.75;;;;;15.87;51.24;101816.03;4993932;28;49055;-69
2023/05/25 03:36:32;;;;;;;;;10.25;10.25;;;;;15.47;51.78;101751.38;4994723;28;45532;-69
2023/05/25 03:38:58;;;;;;;;;14.00;11.25;;;;;15.78;51.81;101823.06;5000107;28;45334;-68
2023/05/25 03:41:23;;;;;;;;;12.25;9.75;;;;;15.74;51.49;101825.59;5000727;28;45672;-70
2023/05/25 03:43:48;;;;;;;;;13.75;12.75;;;;;15.72;52.12;101827.34;5004946;28;45368;-67
2023/05/25 03:46:14;;;;;;;;;13.25;11.00;;;;;15.51;52.38;101807.16;5000966;28;45520;-71
2023/05/25 03:48:39;;;;;;;;;18.00;11.75;;;;;15.54;52.05;101828.78;4996803;28;45452;-69
2023/05/25 03:51:05;;;;;;;;;9.75;8.25;;;;;15.38;52.35;101800.56;4995261;28;45323;-66
2023/05/25 03:53:30;;;;;;;;;12.00;9.00;;;;;15.49;52.67;101830.41;4993552;28;45426;-66
2023/05/25 03:55:56;;;;;;;;;9.75;9.25;;;;;15.43;52.53;101819.53;5004086;28;45351;-68
2023/05/25 03:58:21;;;;;;;;;14.25;13.00;;;;;15.32;52.41;101823.75;4981798;28;45393;-70
2023/05/25 04:00:50;;;;;;;;;9.25;9.25;;;;;15.36;52.99;101831.00;5005318;28;45353;-68
2023/05/25 04:03:16;;;;;;;;;14.75;11.75;;;;;15.37;52.87;101835.53;4995950;28;45458;-69
2023/05/25 04:05:41;;;;;;;;;14.25;10.00;;;;;15.28;52.79;101823.66;4994702;28;45499;-69
2023/05/25 04:08:08;;;;;;;;;7.75;7.00;;;;;15.35;52.84;101831.91;4997218;28;45352;-68
2023/05/25 04:10:34;;;;;;;;;12.00;9.75;;;;;15.24;53.34;101832.53;4992133;28;46095;-68
2023/05/25 04:12:59;;;;;;;;;15.25;12.50;;;;;15.24;52.92;101819.06;4993012;28;45265;-67
2023/05/25 04:15:25;;;;;;;;;16.25;12.25;;;;;15.30;52.66;101831.78;5003131;28;45560;-69
2023/05/25 04:17:50;;;;;;;;;12.25;9.00;;;;;15.29;53.12;101829.94;5006343;28;45278;-69
2023/05/25 04:20:16;;;;;;;;;10.50;8.75;;;;;15.22;53.10;101815.44;5005378;28;45568;-67
2023/05/25 04:22:42;;;;;;;;;16.50;12.75;;;;;15.23;52.99;101833.41;5001906;28;45418;-69
2023/05/25 04:25:09;;;;;;;;;8.75;5.50;;;;;15.06;53.26;101798.00;4995698;28;45462;-67
2023/05/25 04:27:35;;;;;;;;;14.00;9.50;;;;;15.14;52.95;101816.13;4999353;28;45562;-68
2023/05/25 04:30:01;;;;;;;;;11.00;11.00;;;;;15.20;53.27;101824.34;4992514;28;45566;-69
2023/05/25 04:32:28;;;;;;;;;15.50;11.00;;;;;14.96;53.09;101786.97;4991657;28;45348;-69
2023/05/25 04:34:55;;;;;;;;;12.50;9.75;;;;;15.09;53.26;101822.28;5005190;28;45463;-69
2023/05/25 04:37:21;;;;;;;;;11.00;9.00;;;;;15.11;53.53;101830.41;5009494;28;45202;-69
2023/05/25 04:39:47;;;;;;;;;11.50;10.75;;;;;15.13;53.35;101831.38;4995665;28;45764;-67
2023/05/25 04:42:13;;;;;;;;;11.00;8.00;;;;;15.16;53.48;101835.91;4994833;28;45516;-69
2023/05/25 04:44:39;;;;;;;;;10.75;9.75;;;;;15.16;53.60;101839.50;4995983;28;46439;-66
2023/05/25 04:47:06;;;;;;;;;13.25;9.25;;;;;15.17;53.54;101838.63;4996496;28;45503;-66
2023/05/25 04:49:31;;;;;;;;;9.25;9.00;;;;;14.96;53.55;101812.09;4996153;28;47083;-69
2023/05/25 04:51:56;;;;;;;;;10.00;9.75;;;;;15.04;53.27;101833.81;5001078;28;45542;-67
2023/05/25 04:54:22;;;;;;;;;12.75;11.00;;;;;15.06;53.61;101834.75;4979163;28;45463;-68
2023/05/25 04:56:47;;;;;;;;;14.25;9.75;;;;;15.15;53.55;101850.25;4993759;28;45571;-68
2023/05/25 04:59:13;;;;;;;;;13.00;10.50;;;;;14.98;53.34;101815.75;4998723;28;45335;-69
2023/05/25 05:01:39;;;;;;;;;15.50;12.50;;;;;15.15;53.48;101851.16;4994895;28;45447;-67
2023/05/25 05:04:06;;;;;;;;;12.25;10.00;;;;;14.89;53.14;101796.66;4997654;28;45385;-67
2023/05/25 05:06:33;;;;;;;;;12.75;11.00;;;;;15.17;53.60;101851.19;5004009;28;45285;-69
2023/05/25 05:08:59;;;;;;;;;10.00;6.25;;;;;15.15;53.64;101845.78;5010881;28;45481;-70
2023/05/25 05:11:24;;;;;;;;;11.50;10.25;;;;;15.16;53.11;101841.28;5009956;28;45215;-67
2023/05/25 05:13:49;;;;;;;;;9.75;9.75;;;;;15.17;53.97;101853.88;4993662;28;45128;-67
2023/05/25 05:16:15;;;;;;;;;13.25;10.75;;;;;15.09;53.82;101851.00;5008287;28;45505;-68
2023/05/25 05:18:40;;;;;;;;;16.50;14.25;;;;;15.15;53.54;101851.16;5000138;28;45552;-69
2023/05/25 05:21:06;;;;;;;;;18.50;14.00;;;;;15.23;53.22;101863.03;5001465;28;45680;-68
2023/05/25 05:23:33;;;;;;;;;10.25;10.00;;;;;15.26;53.18;101873.88;4978768;28;45625;-69
2023/05/25 05:25:59;;;;;;;;;21.50;12.50;;;;;14.98;53.10;101813.06;4993491;28;45631;-70
2023/05/25 05:28:26;;;;;;;;;8.00;8.00;;;;;15.29;52.73;101873.03;4997829;28;45581;-69
2023/05/25 05:30:52;;;;;;;;;12.75;11.50;;;;;15.26;53.04;101870.25;4989225;28;45560;-70
2023/05/25 05:33:18;;;;;;;;;14.25;10.50;;;;;15.29;52.77;101873.03;4992538;28;45496;-67
2023/05/25 05:35:43;;;;;;;;;10.50;9.75;;;;;15.31;53.18;101871.31;4977841;28;45471;-67
2023/05/25 05:38:09;;;;;;;;;18.00;13.00;;;;;15.32;54.54;101869.53;4976866;28;47131;-69
2023/05/25 05:40:34;;;;;;;;;14.25;10.00;;;;;15.24;53.19;101851.38;5009885;28;45260;-70
2023/05/25 05:43:00;;;;;;;;;14.75;14.00;;;;;15.03;52.93;101814.09;4982809;28;45723;-69
2023/05/25 05:45:25;;;;;;;;;10.75;10.75;;;;;15.35;53.64;101865.13;5008671;28;45321;-68
2023/05/25 05:47:50;;;;;;;;;11.75;9.50;;;;;15.36;52.80;101872.34;5006680;28;46130;-68
2023/05/25 05:50:16;;;;;;;;;14.50;11.25;;;;;15.40;52.24;101884.09;5003799;28;45855;-69
2023/05/25 05:52:41;;;;;;;;;13.00;13.00;;;;;15.17;52.78;101861.97;4997180;28;45558;-70
2023/05/25 05:55:07;;;;;;;;;16.50;14.25;;;;;15.21;52.80;101869.22;4997828;28;45435;-72
2023/05/25 05:57:32;;;;;;;;;27.25;23.50;;;;;14.92;53.15;101820.97;4996190;28;46970;-68
2023/05/25 05:59:58;;;;;;;;;11.00;11.00;;;;;15.27;53.05;101878.38;5003224;28;45088;-68
2023/05/25 06:02:23;;;;;;;;;22.75;16.25;;;;;15.36;53.26;101890.25;5002875;28;45574;-66
2023/05/25 06:04:49;;;;;;;;;35.00;29.50;;;;;15.32;52.82;101889.28;4993227;28;45389;-68
2023/05/25 06:07:14;;;;;;;;;15.00;14.75;;;;;15.35;52.74;101889.34;4985892;28;48234;-67
2023/05/25 06:09:39;;;;;;;;;21.00;15.50;;;;;15.21;52.45;101867.47;4995497;28;45358;-68
2023/05/25 06:12:05;;;;;;;;;21.50;19.00;;;;;15.40;52.60;101901.13;4998889;28;45362;-69
2023/05/25 06:14:31;;;;;;;;;12.25;11.00;;;;;15.32;52.18;101886.56;5008608;28;45099;-70
2023/05/25 06:16:56;;;;;;;;;22.75;17.50;;;;;15.41;52.28;101897.59;4982435;28;46023;-67
2023/05/25 06:19:22;;;;;;;;;27.00;17.25;;;;;15.43;52.05;101884.16;4979921;28;45474;-69
2023/05/25 06:21:47;;;;;;;;;14.00;11.00;;;;;15.57;52.01;101903.34;4995156;28;45534;-68
2023/05/25 06:24:14;;;;;;;;;13.75;11.75;;;;;15.68;51.63;101917.09;4994654;28;45427;-70
2023/05/25 06:26:40;;;;;;;;;16.75;14.00;;;;;15.67;50.89;101894.59;4994235;28;46020;-67
2023/05/25 06:29:05;;;;;;;;;15.25;13.00;;;;;15.83;50.73;101909.38;5003474;28;45039;-69
2023/05/25 06:31:31;;;;;;;;;14.75;11.25;;;;;15.87;50.32;101910.38;4979188;28;45674;-69
2023/05/25 06:33:56;;;;;;;;;12.50;11.25;;;;;15.93;49.52;101918.59;4991656;28;45667;-70
2023/05/25 06:36:22;;;;;;;;;14.25;13.50;;;;;15.87;49.37;101896.88;4998846;28;48057;-70
2023/05/25 06:38:47;;;;;;;;;14.25;9.25;;;;;15.93;49.55;101906.03;4998517;28;45305;-69
2023/05/25 06:41:13;;;;;;;;;18.25;11.00;;;;;16.06;49.88;101912.63;4994012;28;45455;-69
2023/05/25 06:43:39;;;;;;;;;13.00;11.00;;;;;16.16;49.75;101911.03;5000024;28;45376;-69
2023/05/25 06:46:05;;;;;;;;;12.25;10.00;;;;;16.18;48.85;101914.66;4996794;28;45438;-70
2023/05/25 06:48:30;;;;;;;;;16.00;11.25;;;;;16.19;48.91;101917.41;4994054;28;45432;-69
2023/05/25 06:50:55;;;;;;;;;12.75;8.75;;;;;16.24;48.50;101928.28;5007552;28;45367;-69
2023/05/25 06:53:21;;;;;;;;;24.25;20.00;;;;;16.32;48.28;101926.66;5000744;28;45431;-70
2023/05/25 06:55:46;;;;;;;;;12.25;11.00;;;;;16.30;47.71;101903.22;4997102;28;45526;-69
2023/05/25 06:58:12;;;;;;;;;11.75;9.00;;;;;16.44;48.29;101927.81;4994369;28;45403;-69
2023/05/25 07:00:37;;;;;;;;;15.25;9.75;;;;;16.52;48.04;101915.41;4992812;28;45321;-67
2023/05/25 07:03:02;;;;;;;;;8.25;8.00;;;;;16.55;47.49;101910.06;4993848;28;45729;-69
2023/05/25 07:05:28;;;;;;;;;13.25;9.00;;;;;16.65;47.18;101905.78;5009202;28;45403;-68
2023/05/25 07:07:53;;;;;;;;;10.67;9.00;;;;;16.71;47.20;101905.88;4971204;28;45579;-70
2023/05/25 07:10:19;;;;;;;;;9.33;8.67;;;;;16.68;46.52;101901.34;4994689;28;45475;-69
2023/05/25 07:12:44;;;;;;;;;12.67;9.00;;;;;16.73;46.97;101890.66;5002514;28;45499;-69
2023/05/25 07:15:10;;;;;;;;;8.50;8.00;;;;;16.87;46.61;101890.94;5007738;28;45455;-69
2023/05/25 07:17:35;;;;;;;;;12.00;10.33;;;;;17.03;45.83;101908.31;5004431;28;45546;-70
2023/05/25 07:20:03;;;;;;;;;12.67;9.33;;;;;16.96;45.66;101877.63;4978080;28;45386;-69
2023/05/25 07:22:28;;;;;;;;;9.00;8.67;;;;;17.13;45.59;101902.22;4995468;28;45337;-69
2023/05/25 07:24:54;;;;;;;;;9.75;8.00;;;;;17.22;45.59;101904.16;4987760;28;45960;-71
2023/05/25 07:27:19;;;;;;;;;11.00;7.50;;;;;17.30;45.62;101916.00;4977703;28;45301;-68
2023/05/25 07:29:44;;;;;;;;;9.25;6.25;;;;;17.31;44.62;101896.22;5005483;28;45497;-67
2023/05/25 07:32:10;;;;;;;;;14.00;8.33;;;;;17.28;44.62;101888.97;5005176;28;45115;-68
2023/05/25 07:34:35;;;;;;;;;9.25;9.25;;;;;17.45;44.08;101905.44;5001126;28;45244;-69
2023/05/25 07:37:01;;;;;;;;;8.67;8.67;;;;;17.41;44.25;101878.38;4989918;28;45144;-69
2023/05/25 07:39:26;;;;;;;;;27.00;21.00;;;;;17.47;44.23;101870.34;5007404;28;45425;-71
2023/05/25 07:41:52;;;;;;;;;16.75;13.75;;;;;17.62;43.56;101891.28;4999788;28;45516;-70
2023/05/25 07:44:17;;;;;;;;;20.00;17.00;;;;;17.66;42.95;101872.44;4978618;28;47389;-70
2023/05/25 07:46:42;;;;;;;;;19.75;17.75;;;;;17.85;42.95;101892.56;4996927;28;45432;-69
2023/05/25 07:49:14;;;;;;;;;14.00;10.67;;;;;18.01;42.77;101903.63;4997357;28;45684;-70
2023/05/25 07:51:40;;;;;;;;;16.75;15.50;;;;;18.12;42.81;101901.09;4995954;28;45645;-69
2023/05/25 07:54:05;;;;;;;;;17.50;13.25;;;;;18.19;42.17;101908.41;4993940;28;46158;-68
2023/05/25 07:56:30;;;;;;;;;8.75;8.00;;;;;18.24;42.34;101904.84;4988031;28;45690;-69
2023/05/25 07:58:58;;;;;;;;;9.33;8.00;;;;;18.21;41.92;101894.00;4994663;28;45508;-70
2023/05/25 08:01:24;;;;;;;;;7.67;7.00;;;;;18.34;41.63;101911.28;4996843;28;45680;-70
2023/05/25 08:03:49;;;;;;;;;7.67;4.00;;;;;18.36;41.50;101912.25;4993944;28;46951;-70
2023/05/25 08:06:14;;;;;;;;;12.00;8.67;;;;;18.42;41.45;101898.75;4995384;28;45581;-70
2023/05/25 08:08:40;;;;;;;;;5.00;5.00;;;;;18.49;40.37;101906.97;4999230;28;45633;-69
2023/05/25 08:11:06;;;;;;;;;3.00;3.00;;;;;18.49;40.29;101899.75;4981230;28;45401;-70
2023/05/25 08:13:32;;;;;;;;;4.67;4.67;;;;;18.54;39.95;101906.13;4997361;28;46223;-68
2023/05/25 08:15:57;;;;;;;;;3.00;3.00;;;;;18.60;39.69;101905.31;5000355;28;45439;-69
2023/05/25 08:18:22;;;;;;;;;9.33;4.33;;;;;18.63;39.46;101894.50;5000177;28;45448;-70
2023/05/25 08:20:47;;;;;;;;;5.00;2.67;;;;;18.74;39.34;101900.97;5001531;28;49763;-69
2023/05/25 08:23:13;;;;;;;;;3.00;3.00;;;;;18.83;39.23;101907.38;4996487;28;45602;-68
2023/05/25 08:25:38;;;;;;;;;5.00;5.00;;;;;18.92;38.75;101899.38;5002058;28;44910;-69
2023/05/25 08:28:04;;;;;;;;;6.33;4.67;;;;;18.91;38.06;101906.59;4999482;28;45463;-69
2023/05/25 08:30:29;;;;;;;;;5.00;3.00;;;;;18.94;38.38;101903.91;5000411;28;45246;-69
2023/05/25 08:32:55;;;;;;;;;6.33;5.00;;;;;19.02;38.21;101895.84;4994028;28;45915;-68
2023/05/25 08:35:20;;;;;;;;;4.33;3.00;;;;;19.13;38.23;101909.50;4994834;28;45354;-68
2023/05/25 08:37:45;;;;;;;;;2.33;2.33;;;;;19.20;37.77;101905.94;4998405;28;45362;-67
2023/05/25 08:40:15;;;;;;;;;6.00;4.67;;;;;19.27;37.90;101891.59;5000928;28;45598;-69
2023/05/25 08:42:45;;;;;;;;;8.00;4.67;;;;;19.36;37.19;101892.56;5000476;28;46357;-70
2023/05/25 08:45:11;;;;;;;;;5.33;4.00;;;;;19.42;37.33;101887.16;5000993;28;45277;-69
2023/05/25 08:47:42;;;;;;;;;7.33;4.67;;;;;19.53;37.30;101899.00;4983295;28;45181;-69
2023/05/25 08:50:09;;;;;;;;;9.67;4.33;;;;;19.59;36.92;101896.34;5000428;28;45342;-69
2023/05/25 08:52:37;;;;;;;;;4.67;3.67;;;;;19.67;36.49;101900.03;5002496;28;46920;-70
2023/05/25 08:55:08;;;;;;;;;6.00;3.33;;;;;19.75;36.00;101910.00;5006089;28;45155;-71
2023/05/25 08:57:57;;;;;;;;;3.33;3.00;;;;;19.82;35.33;101906.50;5000348;28;45397;-72
2023/05/25 09:00:33;;;;;;;;;4.00;4.00;;;;;19.83;35.36;101890.25;4981280;28;45533;-70
2023/05/25 09:03:16;;;;;;;;;4.67;4.67;;;;;19.91;35.30;101909.25;4995947;28;45532;-69
2023/05/25 09:05:42;;;;;;;;;7.67;7.67;;;;;19.91;35.71;101901.13;5007662;28;45309;-70
2023/05/25 09:08:09;;;;;;;;;10.00;8.67;;;;;20.06;35.38;101900.28;4999936;28;45452;-72
2023/05/25 09:10:35;;;;;;;;;5.67;5.00;;;;;20.18;35.14;101903.09;4983588;28;45589;-70
2023/05/25 09:13:01;;;;;;;;;9.00;7.00;;;;;20.29;35.09;101899.50;5008303;28;45336;-70
2023/05/25 09:15:27;;;;;;;;;5.67;4.33;;;;;20.43;34.95;101900.50;5007749;28;45254;-70
2023/05/25 09:17:52;;;;;;;;;9.33;7.33;;;;;20.49;34.13;101894.16;4985946;28;45498;-70
2023/05/25 09:20:18;;;;;;;;;6.33;4.67;;;;;20.58;34.63;101888.78;5013580;28;45164;-69
2023/05/25 09:22:45;;;;;;;;;6.00;6.00;;;;;20.57;34.01;101889.66;5009424;28;45753;-71
2023/05/25 09:25:14;;;;;;;;;4.00;4.00;;;;;20.66;33.85;101886.13;4991963;28;45199;-69
2023/05/25 09:27:40;;;;;;;;;7.00;5.00;;;;;20.59;34.02;101861.63;5006630;28;45164;-69
2023/05/25 09:30:07;;;;;;;;;5.33;3.67;;;;;20.74;33.43;101885.25;5004090;28;45424;-70
2023/05/25 09:32:33;;;;;;;;;3.00;3.00;;;;;20.72;33.34;101873.47;5011477;28;45159;-70
2023/05/25 09:35:09;;;;;;;;;5.00;4.00;;;;;20.79;33.55;101875.28;5012151;28;45291;-71
2023/05/25 09:37:38;;;;;;;;;6.33;4.67;;;;;20.82;31.84;101884.34;4980157;28;45214;-68
2023/05/25 09:40:10;;;;;;;;;4.00;3.00;;;;;20.87;31.09;101890.69;4998615;28;45612;-68
2023/05/25 09:42:36;;;;;;;;;5.00;5.00;;;;;20.91;31.34;101863.53;4997729;28;45512;-69
2023/05/25 09:45:03;;;;;;;;;6.67;5.00;;;;;20.92;31.85;101886.16;4998184;28;45375;-69
2023/05/25 09:47:28;;;;;;;;;6.00;5.00;;;;;20.97;32.93;101881.66;5008661;28;45171;-69
2023/05/25 09:49:58;;;;;;;;;6.00;4.33;;;;;21.01;33.41;101885.28;4979470;28;45563;-68
2023/05/25 09:52:25;;;;;;;;;4.67;3.00;;;;;21.03;33.60;101883.47;5002325;28;45645;-67
2023/05/25 09:54:51;;;;;;;;;5.33;5.33;;;;;21.05;33.47;101887.09;4996612;28;45502;-68
2023/05/25 09:57:18;;;;;;;;;3.67;3.67;;;;;21.06;33.26;101887.09;4997666;28;45432;-70
2023/05/25 09:59:44;;;;;;;;;5.33;3.67;;;;;21.05;33.32;101866.28;4993378;28;45360;-71
2023/05/25 10:02:10;;;;;;;;;3.67;3.00;;;;;21.09;33.44;101873.50;4984880;28;47149;-67
2023/05/25 10:04:35;;;;;;;;;7.67;7.00;;;;;21.15;33.20;101881.69;5009321;28;45823;-69
2023/05/25 10:07:02;;;;;;;;;11.67;5.67;;;;;21.10;33.15;101878.06;5009882;28;44995;-71
2023/05/25 10:09:28;;;;;;;;;5.00;5.00;;;;;21.14;33.39;101884.41;5003429;28;45488;-72
2023/05/25 10:11:56;;;;;;;;;6.67;6.33;;;;;21.19;32.99;101889.84;4992544;28;46313;-69
2023/05/25 10:14:26;;;;;;;;;5.00;5.00;;;;;21.15;32.51;101884.41;4992294;28;45580;-70
2023/05/25 10:16:53;;;;;;;;;5.33;4.00;;;;;21.25;32.03;101892.53;4991723;28;45590;-69
2023/05/25 10:19:24;;;;;;;;;10.33;3.00;;;;;21.21;32.11;101880.75;4973316;28;45588;-69
2023/05/25 10:22:15;;;;;;;;;6.33;5.67;;;;;21.37;31.96;101898.00;4971219;28;47870;-71
2023/05/25 10:25:07;;;;;;;;;6.67;5.00;;;;;21.31;31.59;101888.00;4987602;28;45599;-70
2023/05/25 10:27:40;;;;;;;;;3.33;3.33;;;;;21.38;31.49;101894.34;4995414;28;45545;-70
2023/05/25 10:30:08;;;;;;;;;4.00;4.00;;;;;21.35;31.39;101886.22;4989913;28;45488;-71
2023/05/25 10:32:36;;;;;;;;;8.00;4.33;;;;;21.34;31.64;101896.16;4993890;28;46347;-70
2023/05/25 10:35:03;;;;;;;;;13.00;7.67;;;;;21.41;31.18;101907.94;5003458;28;45499;-70
2023/05/25 10:37:30;;;;;;;;;6.67;5.00;;;;;21.42;31.34;101906.16;5009305;28;45924;-70
2023/05/25 10:39:57;;;;;;;;;6.67;4.67;;;;;21.39;30.93;101900.72;4986682;28;45439;-70
2023/05/25 10:42:22;;;;;;;;;6.00;3.00;;;;;21.38;31.35;101902.50;4974017;28;47349;-70
2023/05/25 10:44:48;;;;;;;;;6.00;5.00;;;;;21.27;31.94;101880.78;4993407;28;45522;-69
2023/05/25 10:47:15;;;;;;;;;6.67;5.00;;;;;21.35;32.38;101892.56;4991158;28;45556;-69
2023/05/25 10:49:54;;;;;;;;;4.33;4.00;;;;;21.44;32.15;101893.47;4973028;28;46754;-71
2023/05/25 10:52:21;;;;;;;;;7.00;6.00;;;;;21.40;32.42;101892.56;4986721;28;47313;-69
2023/05/25 10:54:47;;;;;;;;;7.00;4.00;;;;;21.37;32.15;101894.38;4989946;28;45476;-71
2023/05/25 10:57:21;;;;;;;;;7.00;5.33;;;;;21.43;32.22;101894.34;4986841;28;45465;-71
2023/05/25 10:59:50;;;;;;;;;8.33;7.00;;;;;21.46;32.26;101900.69;4966502;28;45424;-71
2023/05/25 11:02:21;;;;;;;;;6.00;3.33;;;;;21.43;32.18;101892.56;4974037;28;47639;-71
2023/05/25 11:04:47;;;;;;;;;3.67;3.33;;;;;21.46;32.52;101887.09;4990364;28;45443;-69
2023/05/25 11:07:15;;;;;;;;;5.00;4.67;;;;;21.45;31.99;101888.03;4975169;28;45380;-69
2023/05/25 11:09:42;;;;;;;;;10.33;10.00;;;;;21.59;31.81;101893.47;4992377;28;45400;-69
2023/05/25 11:12:19;;;;;;;;;3.00;3.00;;;;;21.52;31.06;101865.38;4988400;28;45522;-70
2023/05/25 11:15:08;;;;;;;;;5.33;5.00;;;;;21.69;31.39;101886.22;4958502;28;45495;-69